createdAt,value
2023-01-18T00:01:02.404Z,3.80
2023-01-18T00:03:33.514Z,3.90
2023-01-18T00:06:02.780Z,3.90
2023-01-18T00:08:34.634Z,3.90
2023-01-18T00:11:05.082Z,3.90
2023-01-18T00:13:34.205Z,3.90
2023-01-18T00:16:04.896Z,4.00
2023-01-18T00:18:36.048Z,4.00
2023-01-18T00:21:06.457Z,4.00
2023-01-18T00:23:37.207Z,4.00
2023-01-18T00:26:08.368Z,4.00
2023-01-18T00:28:37.461Z,4.00
2023-01-18T00:31:10.982Z,4.00
2023-01-18T00:33:40.404Z,4.00
2023-01-18T00:36:09.451Z,4.00
2023-01-18T00:38:39.866Z,4.00
2023-01-18T00:41:08.884Z,4.00
2023-01-18T00:43:39.881Z,4.00
2023-01-18T00:46:10.328Z,4.00
2023-01-18T00:48:40.104Z,4.00
2023-01-18T00:51:14.479Z,4.00
2023-01-18T00:53:45.481Z,3.90
2023-01-18T00:56:17.077Z,3.90
2023-01-18T00:58:46.809Z,3.90
2023-01-18T01:01:16.463Z,3.90
2023-01-18T01:04:02.713Z,4.00
2023-01-18T01:06:46.507Z,3.90
2023-01-18T01:09:19.756Z,3.90
2023-01-18T01:12:08.253Z,3.90
2023-01-18T01:14:57.554Z,3.90
2023-01-18T01:17:43.811Z,3.90
2023-01-18T01:20:31.221Z,3.90
2023-01-18T01:23:27.564Z,3.90
2023-01-18T01:26:10.985Z,3.90
2023-01-18T01:28:42.501Z,3.90
2023-01-18T01:31:14.156Z,3.90
2023-01-18T01:33:43.373Z,3.90
2023-01-18T01:36:14.733Z,3.90
2023-01-18T01:38:43.896Z,3.90
2023-01-18T01:41:18.099Z,3.90
2023-01-18T01:43:48.549Z,3.90
2023-01-18T01:46:25.198Z,3.90
2023-01-18T01:49:01.838Z,3.90
2023-01-18T01:51:30.898Z,3.90
2023-01-18T01:54:03.814Z,3.90
2023-01-18T01:56:34.566Z,3.90
2023-01-18T01:59:04.801Z,4.00
2023-01-18T02:01:34.972Z,4.00
2023-01-18T02:04:05.188Z,4.00
2023-01-18T02:06:37.254Z,4.00
2023-01-18T02:09:09.070Z,4.00
2023-01-18T02:11:40.685Z,4.00
2023-01-18T02:14:12.485Z,3.90
2023-01-18T02:16:57.547Z,3.90
2023-01-18T02:19:50.430Z,3.90
2023-01-18T02:22:35.192Z,3.90
2023-01-18T02:25:33.119Z,3.90
2023-01-18T02:28:09.377Z,3.90
2023-01-18T02:30:44.554Z,3.90
2023-01-18T02:33:21.082Z,3.90
2023-01-18T02:35:53.371Z,3.90
2023-01-18T02:38:25.098Z,3.90
2023-01-18T02:41:09.722Z,3.90
2023-01-18T02:44:05.831Z,3.90
2023-01-18T02:46:35.580Z,3.90
2023-01-18T02:49:08.318Z,3.90
2023-01-18T02:51:37.553Z,3.90
2023-01-18T02:54:10.122Z,3.90
2023-01-18T02:56:42.524Z,3.90
2023-01-18T02:59:17.144Z,3.90
2023-01-18T03:01:49.234Z,3.90
2023-01-18T03:04:23.248Z,3.90
2023-01-18T03:06:59.479Z,3.90
2023-01-18T03:09:29.253Z,3.90
2023-01-18T03:12:04.418Z,3.90
2023-01-18T03:14:43.835Z,3.90
2023-01-18T03:17:18.830Z,3.90
2023-01-18T03:20:08.754Z,4.00
2023-01-18T03:22:57.562Z,4.00
2023-01-18T03:25:29.664Z,4.00
2023-01-18T03:28:21.572Z,4.00
2023-01-18T03:31:11.315Z,4.00
2023-01-18T03:33:47.445Z,4.00
2023-01-18T03:36:26.610Z,4.00
2023-01-18T03:38:58.945Z,4.00
2023-01-18T03:41:32.018Z,4.00
2023-01-18T03:44:05.893Z,4.00
2023-01-18T03:46:36.764Z,4.00
2023-01-18T03:49:06.072Z,4.00
2023-01-18T03:51:48.331Z,4.00
2023-01-18T03:54:23.273Z,4.00
2023-01-18T03:56:55.020Z,4.00
2023-01-18T03:59:24.523Z,4.10
2023-01-18T04:01:54.917Z,4.10
2023-01-18T04:04:23.888Z,4.00
2023-01-18T04:06:52.981Z,4.00
2023-01-18T04:09:21.951Z,4.00
2023-01-18T04:11:51.037Z,4.10
2023-01-18T04:14:20.354Z,4.10
2023-01-18T04:16:49.417Z,4.10
2023-01-18T04:19:19.928Z,4.10
2023-01-18T04:21:49.003Z,4.10
2023-01-18T04:24:18.667Z,4.10
2023-01-18T04:26:47.685Z,4.10
2023-01-18T04:29:17.251Z,4.10
2023-01-18T04:31:46.275Z,4.10
2023-01-18T04:34:15.451Z,4.20
2023-01-18T04:36:45.890Z,4.20
2023-01-18T04:39:15.565Z,4.20
2023-01-18T04:41:44.909Z,4.20
2023-01-18T04:44:14.072Z,4.20
2023-01-18T04:46:43.110Z,4.30
2023-01-18T04:49:15.388Z,4.30
2023-01-18T04:51:47.005Z,4.30
2023-01-18T04:54:18.551Z,4.30
2023-01-18T04:56:47.511Z,4.30
2023-01-18T04:59:17.422Z,4.30
2023-01-18T05:01:46.521Z,4.30
2023-01-18T05:04:15.807Z,4.30
2023-01-18T05:06:46.264Z,4.40
2023-01-18T05:09:15.389Z,4.40
2023-01-18T05:11:44.967Z,4.40
2023-01-18T05:14:14.011Z,4.40
2023-01-18T05:16:52.173Z,4.40
2023-01-18T05:19:21.372Z,4.40
2023-01-18T05:21:51.701Z,4.30
2023-01-18T05:24:20.682Z,4.40
2023-01-18T05:26:49.667Z,4.40
2023-01-18T05:29:19.577Z,4.30
2023-01-18T05:31:48.587Z,4.30
2023-01-18T05:34:17.714Z,4.30
2023-01-18T05:40:33.092Z,4.30
2023-01-18T05:43:04.833Z,4.30
2023-01-18T05:45:34.458Z,4.30
2023-01-18T05:48:04.006Z,4.30
2023-01-18T05:50:33.136Z,4.30
2023-01-18T05:53:16.210Z,4.40
2023-01-18T05:55:54.462Z,4.40
2023-01-18T05:58:23.615Z,4.40
2023-01-18T06:00:52.659Z,4.40
2023-01-18T06:03:21.986Z,4.40
2023-01-18T06:05:51.799Z,4.40
2023-01-18T06:08:21.302Z,4.40
2023-01-18T06:10:59.424Z,4.40
2023-01-18T06:13:31.741Z,4.40
2023-01-18T06:16:01.813Z,4.40
2023-01-18T06:18:32.810Z,4.40
2023-01-18T06:21:05.275Z,4.40
2023-01-18T06:23:35.363Z,4.40
2023-01-18T06:26:06.111Z,4.40
2023-01-18T06:28:35.117Z,4.30
2023-01-18T06:31:05.909Z,4.30
2023-01-18T06:33:35.047Z,4.30
2023-01-18T06:36:04.312Z,4.30
2023-01-18T06:38:33.300Z,4.30
2023-01-18T06:41:02.343Z,4.30
2023-01-18T06:43:32.722Z,4.30
2023-01-18T06:46:01.746Z,4.30
2023-01-18T06:48:30.713Z,4.30
2023-01-18T06:50:59.751Z,4.30
2023-01-18T06:53:28.786Z,4.30
2023-01-18T06:55:58.978Z,4.30
2023-01-18T06:58:28.857Z,4.30
2023-01-18T07:01:00.312Z,4.30
2023-01-18T07:03:30.943Z,4.40
2023-01-18T07:06:01.574Z,4.30
2023-01-18T07:08:32.044Z,4.40
2023-01-18T07:11:05.986Z,4.40
2023-01-18T07:13:35.579Z,4.40
2023-01-18T07:16:06.647Z,4.40
2023-01-18T07:18:35.613Z,4.40
2023-01-18T07:21:07.149Z,4.40
2023-01-18T07:23:38.368Z,4.40
2023-01-18T07:26:10.073Z,4.40
2023-01-18T07:28:39.216Z,4.40
2023-01-18T07:31:10.704Z,4.40
2023-01-18T07:33:39.849Z,4.40
2023-01-18T07:36:10.982Z,4.40
2023-01-18T07:38:40.083Z,4.40
2023-01-18T07:41:11.251Z,4.40
2023-01-18T07:43:40.254Z,4.40
2023-01-18T07:46:15.675Z,4.40
2023-01-18T07:48:46.797Z,4.40
2023-01-18T07:51:16.456Z,4.40
2023-01-18T07:53:45.687Z,4.40
2023-01-18T07:56:16.776Z,4.30
2023-01-18T07:58:45.926Z,4.30
2023-01-18T08:01:18.490Z,4.30
2023-01-18T08:03:48.925Z,4.30
2023-01-18T08:06:25.840Z,4.20
2023-01-18T08:08:56.702Z,4.20
2023-01-18T08:11:25.955Z,4.20
2023-01-18T08:13:55.033Z,4.20
2023-01-18T08:16:26.901Z,4.20
2023-01-18T08:18:55.879Z,4.20
2023-01-18T08:21:24.939Z,4.20
2023-01-18T08:23:54.733Z,4.20
2023-01-18T08:26:23.727Z,4.20
2023-01-18T08:28:52.784Z,4.20
2023-01-18T08:31:24.847Z,4.10
2023-01-18T08:33:54.132Z,4.20
2023-01-18T08:36:25.283Z,4.10
2023-01-18T08:38:55.359Z,4.10
2023-01-18T08:41:28.540Z,4.20
2023-01-18T08:43:59.234Z,4.20
2023-01-18T08:46:29.812Z,4.20
2023-01-18T08:48:59.577Z,4.20
2023-01-18T08:51:28.692Z,4.20
2023-01-18T08:53:58.795Z,4.20
2023-01-18T08:56:28.116Z,4.20
2023-01-18T08:58:57.850Z,4.20
2023-01-18T09:01:26.939Z,4.30
2023-01-18T09:03:58.640Z,4.20
2023-01-18T09:06:32.132Z,4.30
2023-01-18T09:09:01.647Z,4.30
2023-01-18T09:11:30.806Z,4.40
2023-01-18T09:14:02.148Z,4.40
2023-01-18T09:16:32.320Z,4.40
2023-01-18T09:19:06.329Z,4.50
2023-01-18T09:21:35.601Z,4.50
2023-01-18T09:24:04.723Z,4.60
2023-01-18T09:26:33.868Z,4.60
2023-01-18T09:29:03.033Z,4.70
2023-01-18T09:31:32.089Z,4.80
2023-01-18T09:34:18.496Z,4.90
2023-01-18T09:36:51.666Z,5.00
2023-01-18T09:39:20.858Z,5.10
2023-01-18T09:41:55.372Z,5.20
2023-01-18T09:44:31.278Z,5.20
2023-01-18T09:47:05.264Z,5.30
2023-01-18T09:49:39.096Z,5.40
2023-01-18T09:52:25.368Z,5.40
2023-01-18T09:55:02.329Z,5.40
2023-01-18T09:57:44.957Z,5.50
2023-01-18T10:00:21.773Z,5.50
2023-01-18T10:02:55.542Z,5.50
2023-01-18T10:05:29.680Z,5.50
2023-01-18T10:08:07.937Z,5.50
2023-01-18T10:10:40.490Z,5.50
2023-01-18T10:13:37.977Z,5.50
2023-01-18T10:16:14.753Z,5.50
2023-01-18T10:18:46.781Z,5.50
2023-01-18T10:21:25.134Z,5.60
2023-01-18T10:24:09.451Z,5.60
2023-01-18T10:26:40.744Z,5.60
2023-01-18T10:29:17.470Z,5.70
2023-01-18T10:31:56.788Z,5.80
2023-01-18T10:34:31.853Z,5.80
2023-01-18T10:37:12.514Z,5.80
2023-01-18T10:39:44.871Z,5.90
2023-01-18T10:42:21.758Z,5.90
2023-01-18T10:44:50.937Z,6.00
2023-01-18T10:47:21.357Z,6.10
2023-01-18T10:49:51.893Z,6.00
2023-01-18T10:52:27.347Z,6.00
2023-01-18T10:54:59.608Z,6.10
2023-01-18T10:57:31.881Z,6.20
2023-01-18T11:00:01.574Z,6.20
2023-01-18T11:02:32.871Z,6.30
2023-01-18T11:05:17.049Z,6.30
2023-01-18T11:07:47.456Z,6.30
2023-01-18T11:10:27.335Z,6.40
2023-01-18T11:12:56.415Z,6.40
2023-01-18T11:15:30.133Z,6.50
2023-01-18T11:18:09.812Z,6.60
2023-01-18T11:20:45.701Z,6.60
2023-01-18T11:23:22.255Z,6.70
2023-01-18T11:25:56.704Z,6.60
2023-01-18T11:28:29.551Z,6.60
2023-01-18T11:31:01.935Z,6.60
2023-01-18T11:33:31.089Z,6.50
2023-01-18T11:36:02.294Z,6.50
2023-01-18T11:38:33.975Z,6.60
2023-01-18T11:41:05.242Z,6.60
2023-01-18T11:43:36.709Z,6.70
2023-01-18T11:46:27.801Z,6.70
2023-01-18T11:49:02.392Z,6.70
2023-01-18T11:51:35.475Z,6.80
2023-01-18T11:54:18.816Z,6.90
2023-01-18T11:56:50.807Z,6.80
2023-01-18T11:59:26.740Z,6.80
2023-01-18T12:02:27.007Z,6.80
2023-01-18T12:05:18.165Z,6.80
2023-01-18T12:07:57.177Z,6.70
2023-01-18T12:10:31.183Z,6.70
2023-01-18T12:13:24.340Z,6.70
2023-01-18T12:16:08.344Z,6.50
2023-01-18T12:19:00.306Z,6.40
2023-01-18T12:21:33.736Z,6.40
2023-01-18T12:24:28.416Z,6.40
2023-01-18T12:27:01.270Z,6.30
2023-01-18T12:29:44.129Z,6.30
2023-01-18T12:32:26.995Z,6.30
2023-01-18T12:35:23.000Z,6.30
2023-01-18T12:37:58.444Z,6.30
2023-01-18T12:40:39.651Z,6.30
2023-01-18T12:43:20.916Z,6.30
2023-01-18T12:45:53.380Z,6.20
2023-01-18T12:48:27.275Z,6.20
2023-01-18T12:50:57.392Z,6.20
2023-01-18T12:53:40.598Z,6.30
2023-01-18T12:56:14.608Z,6.20
2023-01-18T12:58:45.372Z,6.20
2023-01-18T13:01:21.602Z,6.30
2023-01-18T13:03:54.315Z,6.30
2023-01-18T13:06:24.374Z,6.30
2023-01-18T13:08:58.426Z,6.40
2023-01-18T13:11:31.639Z,6.40
2023-01-18T13:14:17.492Z,6.50
2023-01-18T13:16:55.853Z,6.50
2023-01-18T13:19:29.474Z,6.60
2023-01-18T13:22:07.780Z,6.70
2023-01-18T13:24:53.723Z,6.70
2023-01-18T13:27:22.858Z,6.80
2023-01-18T13:29:53.282Z,6.80
2023-01-18T13:32:30.407Z,6.80
2023-01-18T13:35:19.674Z,6.90
2023-01-18T13:37:52.596Z,7.00
2023-01-18T13:40:38.970Z,7.00
2023-01-18T13:43:54.911Z,6.90
2023-01-18T13:46:26.496Z,6.90
2023-01-18T13:48:57.589Z,7.00
2023-01-18T13:51:54.811Z,7.10
2023-01-18T13:55:03.871Z,7.10
2023-01-18T13:57:35.374Z,7.20
2023-01-18T14:00:07.527Z,7.20
2023-01-18T14:02:43.431Z,7.20
2023-01-18T14:05:25.296Z,7.10
2023-01-18T14:07:58.561Z,7.10
2023-01-18T14:10:31.833Z,7.00
2023-01-18T14:13:03.166Z,6.90
2023-01-18T14:15:49.407Z,6.90
2023-01-18T14:18:23.778Z,6.80
2023-01-18T14:21:16.511Z,6.80
2023-01-18T14:24:07.221Z,6.80
2023-01-18T14:26:39.005Z,6.70
2023-01-18T14:29:13.003Z,6.70
2023-01-18T14:31:46.810Z,6.70
2023-01-18T14:34:36.504Z,6.70
2023-01-18T14:37:24.811Z,6.80
2023-01-18T14:40:08.209Z,6.80
2023-01-18T14:42:43.698Z,6.80
2023-01-18T14:45:28.008Z,6.90
2023-01-18T14:47:58.821Z,6.90
2023-01-18T14:50:33.745Z,6.90
2023-01-18T14:53:02.998Z,6.90
2023-01-18T14:55:34.385Z,6.90
2023-01-18T14:58:13.510Z,6.90
2023-01-18T15:00:51.214Z,6.90
2023-01-18T15:03:24.189Z,6.90
2023-01-18T15:06:02.109Z,6.90
2023-01-18T15:08:35.126Z,6.80
2023-01-18T15:11:06.199Z,6.80
2023-01-18T15:13:47.411Z,6.80
2023-01-18T15:16:18.561Z,6.80
2023-01-18T15:18:49.560Z,6.80
2023-01-18T15:21:23.990Z,6.90
2023-01-18T15:23:57.501Z,6.80
2023-01-18T15:26:47.010Z,6.90
2023-01-18T15:29:18.244Z,6.90
2023-01-18T15:31:48.396Z,6.80
2023-01-18T15:34:19.658Z,6.90
2023-01-18T15:36:50.489Z,6.80
2023-01-18T15:39:20.426Z,6.80
2023-01-18T15:41:50.908Z,6.80
2023-01-18T15:44:47.653Z,6.80
2023-01-18T15:47:24.981Z,6.80
2023-01-18T15:49:56.778Z,6.70
2023-01-18T15:52:39.982Z,6.60
2023-01-18T15:55:19.536Z,6.60
2023-01-18T15:57:58.335Z,6.50
2023-01-18T16:00:34.784Z,6.50
2023-01-18T16:03:04.642Z,6.40
2023-01-18T16:05:33.799Z,6.40
2023-01-18T16:08:28.161Z,6.40
2023-01-18T16:10:58.166Z,6.30
2023-01-18T16:13:38.694Z,6.30
2023-01-18T16:16:21.455Z,6.30
2023-01-18T16:18:59.618Z,6.20
2023-01-18T16:21:40.345Z,6.20
2023-01-18T16:24:27.873Z,6.20
2023-01-18T16:26:58.111Z,6.20
2023-01-18T16:29:27.578Z,6.20
2023-01-18T16:32:21.280Z,6.20
2023-01-18T16:34:50.473Z,6.20
2023-01-18T16:37:20.177Z,6.20
2023-01-18T16:39:50.767Z,6.20
2023-01-18T16:42:21.765Z,6.20
2023-01-18T16:44:55.446Z,6.20
2023-01-18T16:47:24.566Z,6.10
2023-01-18T16:49:54.235Z,6.10
2023-01-18T16:52:23.328Z,6.10
2023-01-18T16:54:53.727Z,6.10
2023-01-18T16:57:24.312Z,6.00
2023-01-18T16:59:53.359Z,6.00
2023-01-18T17:02:31.130Z,5.90
2023-01-18T17:05:00.282Z,5.90
2023-01-18T17:07:29.345Z,5.90
2023-01-18T17:10:02.097Z,5.90
2023-01-18T17:12:31.060Z,5.80
2023-01-18T17:15:00.387Z,5.80
2023-01-18T17:17:29.459Z,5.80
2023-01-18T17:19:59.589Z,5.80
2023-01-18T17:22:28.657Z,5.80
2023-01-18T17:24:59.135Z,5.70
2023-01-18T17:27:28.253Z,5.70
2023-01-18T17:29:57.260Z,5.70
2023-01-18T17:35:01.742Z,5.60
2023-01-18T17:37:31.959Z,5.60
2023-01-18T17:40:16.317Z,5.60
2023-01-18T17:42:49.427Z,5.60
2023-01-18T17:45:18.939Z,5.60
2023-01-18T17:47:48.073Z,5.50
2023-01-18T17:50:23.110Z,5.50
2023-01-18T17:52:54.181Z,5.40
2023-01-18T17:55:34.336Z,5.40
2023-01-18T17:58:04.752Z,5.40
2023-01-18T18:00:33.823Z,5.30
2023-01-18T18:03:02.934Z,5.40
2023-01-18T18:05:32.191Z,5.30
2023-01-18T18:08:01.218Z,5.30
2023-01-18T18:10:32.005Z,5.30
2023-01-18T18:13:01.826Z,5.30
2023-01-18T18:15:31.120Z,5.20
2023-01-18T18:18:00.206Z,5.30
2023-01-18T18:20:29.230Z,5.20
2023-01-18T18:22:58.713Z,5.20
2023-01-18T18:25:28.346Z,5.20
2023-01-18T18:27:58.956Z,5.20
2023-01-18T18:30:28.092Z,5.20
2023-01-18T18:32:58.458Z,5.20
2023-01-18T18:35:27.682Z,5.10
2023-01-18T18:37:57.218Z,5.10
2023-01-18T18:40:26.575Z,5.00
2023-01-18T18:43:02.835Z,5.00
2023-01-18T18:45:35.700Z,5.00
2023-01-18T18:48:05.915Z,5.00
2023-01-18T18:50:35.453Z,5.00
2023-01-18T18:53:04.623Z,5.00
2023-01-18T18:55:33.829Z,5.00
2023-01-18T18:58:04.279Z,5.00
2023-01-18T19:00:33.292Z,5.00
2023-01-18T19:03:03.640Z,5.00
2023-01-18T19:05:34.114Z,5.00
2023-01-18T19:08:04.057Z,5.00
2023-01-18T19:10:33.091Z,5.00
2023-01-18T19:13:05.004Z,5.00
2023-01-18T19:15:34.230Z,5.00
2023-01-18T19:18:03.413Z,5.00
2023-01-18T19:20:33.376Z,5.00
2023-01-18T19:23:02.985Z,5.00
2023-01-18T19:25:32.501Z,4.90
2023-01-18T19:28:03.066Z,5.00
2023-01-18T19:30:33.325Z,5.00
2023-01-18T19:33:03.950Z,5.00
2023-01-18T19:35:34.376Z,5.00
2023-01-18T19:38:03.374Z,5.00
2023-01-18T19:40:32.739Z,5.00
2023-01-18T19:43:03.487Z,5.00
2023-01-18T19:45:33.231Z,5.00
2023-01-18T19:48:02.700Z,5.00
2023-01-18T19:50:32.010Z,5.00
2023-01-18T19:53:01.513Z,5.00
2023-01-18T19:55:30.729Z,4.90
2023-01-18T19:58:01.559Z,4.90
2023-01-18T20:00:32.206Z,4.90
2023-01-18T20:03:01.402Z,4.90
2023-01-18T20:05:30.705Z,4.90
2023-01-18T20:07:59.704Z,4.90
2023-01-18T20:10:28.752Z,4.90
2023-01-18T20:12:59.669Z,4.90
2023-01-18T20:15:28.936Z,4.90
2023-01-18T20:17:59.329Z,4.90
2023-01-18T20:20:32.848Z,4.90
2023-01-18T20:23:04.431Z,4.80
2023-01-18T20:25:34.127Z,4.80
2023-01-18T20:28:03.141Z,4.80
2023-01-18T20:30:32.328Z,4.80
2023-01-18T20:33:03.275Z,4.80
2023-01-18T20:35:32.427Z,4.80
2023-01-18T20:38:01.385Z,4.70
2023-01-18T20:40:30.534Z,4.80
2023-01-18T20:43:00.342Z,4.70
2023-01-18T20:45:31.210Z,4.70
2023-01-18T20:48:00.614Z,4.70
2023-01-18T20:50:31.406Z,4.70
2023-01-18T20:53:01.212Z,4.70
2023-01-18T20:55:30.770Z,4.70
2023-01-18T20:57:59.917Z,4.70
2023-01-18T21:00:29.578Z,4.70
2023-01-18T21:02:59.393Z,4.70
2023-01-18T21:05:30.198Z,4.70
2023-01-18T21:07:59.978Z,4.70
2023-01-18T21:10:38.746Z,4.70
2023-01-18T21:13:08.530Z,4.70
2023-01-18T21:15:38.966Z,4.70
2023-01-18T21:18:08.465Z,4.70
2023-01-18T21:20:38.877Z,4.80
2023-01-18T21:23:07.869Z,4.80
2023-01-18T21:25:36.855Z,4.80
2023-01-18T21:28:06.046Z,4.80
2023-01-18T21:30:35.046Z,4.70
2023-01-18T21:33:04.065Z,4.80
2023-01-18T21:35:33.087Z,4.70
2023-01-18T21:38:04.845Z,4.70
2023-01-18T21:40:33.787Z,4.70
2023-01-18T21:43:20.432Z,4.70
2023-01-18T21:45:58.932Z,4.70
2023-01-18T21:48:30.377Z,4.70
2023-01-18T21:51:19.070Z,4.70
2023-01-18T21:54:07.479Z,4.70
2023-01-18T21:56:38.423Z,4.60
2023-01-18T21:59:07.423Z,4.70
2023-01-18T22:01:40.283Z,4.70
2023-01-18T22:04:28.861Z,4.60
2023-01-18T22:06:59.471Z,4.70
2023-01-18T22:09:31.169Z,4.70
2023-01-18T22:12:00.201Z,4.60
2023-01-18T22:14:29.266Z,4.70
2023-01-18T22:16:58.549Z,4.70
2023-01-18T22:19:27.725Z,4.70
2023-01-18T22:21:56.702Z,4.60
2023-01-18T22:24:25.669Z,4.70
2023-01-18T22:26:55.989Z,4.70
2023-01-18T22:29:24.988Z,4.70
2023-01-18T22:31:56.072Z,4.70
2023-01-18T22:34:24.904Z,4.70
2023-01-18T22:36:53.847Z,4.70
2023-01-18T22:39:22.842Z,4.70
2023-01-18T22:41:51.864Z,4.70
2023-01-18T22:44:22.260Z,4.70
2023-01-18T22:46:53.126Z,4.70
2023-01-18T22:49:22.148Z,4.60
2023-01-18T22:51:51.159Z,4.70
2023-01-18T22:54:22.629Z,4.70
2023-01-18T22:56:51.659Z,4.70
2023-01-18T22:59:22.069Z,4.70
2023-01-18T23:01:51.028Z,4.70
2023-01-18T23:04:20.592Z,4.70
2023-01-18T23:06:50.823Z,4.70
2023-01-18T23:09:19.947Z,4.70
2023-01-18T23:11:49.044Z,4.80
2023-01-18T23:14:35.688Z,4.80
2023-01-18T23:17:23.305Z,4.80
2023-01-18T23:19:52.276Z,4.80
2023-01-18T23:22:21.358Z,4.80
2023-01-18T23:24:50.530Z,4.80
2023-01-18T23:27:19.573Z,4.90
2023-01-18T23:29:51.541Z,4.90
2023-01-18T23:32:26.308Z,4.90
2023-01-18T23:34:55.652Z,4.90
2023-01-18T23:37:25.306Z,4.90
2023-01-18T23:40:11.824Z,4.90
2023-01-18T23:42:58.103Z,4.90
2023-01-18T23:45:44.812Z,4.90
2023-01-18T23:48:34.864Z,4.90
2023-01-18T23:51:22.364Z,4.90
2023-01-18T23:54:08.861Z,4.90
2023-01-18T23:56:37.875Z,4.90
2023-01-18T23:59:06.997Z,4.90
